createdAt,value
2019-02-24T00:00:00.850Z,11.87
2019-02-24T00:02:30.052Z,13.17
2019-02-24T00:05:00.729Z,12.70
2019-02-24T00:07:29.915Z,13.43
2019-02-24T00:09:59.342Z,11.93
2019-02-24T00:12:28.636Z,12.30
2019-02-24T00:14:57.852Z,11.53
2019-02-24T00:17:28.388Z,12.40
2019-02-24T00:19:57.679Z,12.00
2019-02-24T00:22:26.884Z,13.07
2019-02-24T00:24:56.077Z,12.10
2019-02-24T00:27:27.395Z,12.37
2019-02-24T00:29:57.296Z,12.33
2019-02-24T00:32:27.570Z,12.47
2019-02-24T00:34:57.474Z,11.60
2019-02-24T00:37:27.460Z,12.73
2019-02-24T00:39:57.649Z,11.43
2019-02-24T00:42:27.764Z,11.83
2019-02-24T00:44:57.562Z,11.63
2019-02-24T00:47:28.561Z,12.27
2019-02-24T00:49:58.585Z,11.57
2019-02-24T00:52:27.735Z,11.53
2019-02-24T00:54:56.998Z,11.03
2019-02-24T00:57:26.137Z,10.97
2019-02-24T00:59:55.330Z,11.57
2019-02-24T01:02:24.485Z,11.97
2019-02-24T01:04:53.782Z,10.93
2019-02-24T01:07:22.976Z,12.73
2019-02-24T01:09:52.296Z,11.33
2019-02-24T01:12:21.492Z,12.33
2019-02-24T01:14:50.667Z,13.33
2019-02-24T12:28:44.803Z,4.92
2019-02-24T12:31:14.097Z,5.10
2019-02-24T12:33:43.366Z,4.80
2019-02-24T12:36:12.648Z,4.72
2019-02-24T12:38:41.946Z,4.67
2019-02-24T12:41:12.264Z,4.92
2019-02-24T12:43:41.551Z,3.87
2019-02-24T12:46:10.778Z,4.28
2019-02-24T12:48:40.280Z,3.92
2019-02-24T12:51:09.404Z,4.30
2019-02-24T12:53:38.934Z,3.80
2019-02-24T12:56:08.256Z,9.53
2019-02-24T12:58:37.939Z,5.58
2019-02-24T13:01:07.509Z,4.65
2019-02-24T13:03:36.730Z,3.87
2019-02-24T13:06:06.455Z,4.05
2019-02-24T13:08:36.146Z,4.28
2019-02-24T13:11:05.492Z,3.67
2019-02-24T13:13:38.069Z,3.35
2019-02-24T13:16:07.725Z,3.80
2019-02-24T13:18:36.957Z,3.75
2019-02-24T13:21:06.152Z,3.12
2019-02-24T13:23:35.407Z,3.05
2019-02-24T13:26:04.891Z,3.37
2019-02-24T13:28:50.122Z,4.15
2019-02-24T13:31:11.149Z,3.25
2019-02-24T13:33:40.417Z,2.92
2019-02-24T13:36:10.071Z,2.92
2019-02-24T13:38:39.294Z,3.10
2019-02-24T13:41:09.045Z,3.45
2019-02-24T13:43:38.378Z,3.20
2019-02-24T13:46:07.747Z,2.95
2019-02-24T13:48:36.961Z,3.35
2019-02-24T13:51:06.182Z,2.55
2019-02-24T13:53:35.440Z,2.10
2019-02-24T13:56:04.741Z,2.62
2019-02-24T13:58:34.156Z,2.90
2019-02-24T14:01:22.441Z,3.25
2019-02-24T14:03:51.686Z,2.90
2019-02-24T14:06:20.945Z,2.35
2019-02-24T14:08:50.149Z,3.65
2019-02-24T14:11:19.511Z,2.75
2019-02-24T14:13:48.675Z,3.00
2019-02-24T14:16:17.951Z,3.00
2019-02-24T14:18:49.971Z,3.40
2019-02-24T14:21:21.828Z,2.67
2019-02-24T14:23:50.924Z,3.33
2019-02-24T14:26:20.353Z,3.10
2019-02-24T14:28:49.568Z,2.80
2019-02-24T14:31:18.826Z,3.02
2019-02-24T14:33:48.016Z,2.95
2019-02-24T14:36:18.101Z,3.65
2019-02-24T14:38:47.429Z,3.35
2019-02-24T14:41:16.580Z,2.77
2019-02-24T14:43:45.676Z,2.55
2019-02-24T14:46:14.895Z,3.60
2019-02-24T14:48:44.821Z,3.33
2019-02-24T14:51:14.426Z,3.60
2019-02-24T14:53:43.681Z,3.02
2019-02-24T14:56:12.868Z,3.80
2019-02-24T14:58:42.096Z,3.80
2019-02-24T15:01:11.386Z,4.22
2019-02-24T15:03:40.672Z,4.12
2019-02-24T15:06:09.977Z,4.62
2019-02-24T15:08:39.222Z,4.37
2019-02-24T15:11:08.340Z,4.45
2019-02-24T15:13:37.569Z,4.30
2019-02-24T15:16:06.752Z,3.95
2019-02-24T15:18:36.025Z,5.12
2019-02-24T15:21:05.410Z,4.30
2019-02-24T15:23:34.626Z,5.30
2019-02-24T15:26:03.833Z,4.30
2019-02-24T15:28:33.068Z,4.97
2019-02-24T15:31:02.334Z,4.20
2019-02-24T15:33:31.653Z,4.12
2019-02-24T15:36:00.923Z,4.15
2019-02-24T15:38:30.127Z,4.37
2019-02-24T15:40:59.281Z,4.35
2019-02-24T15:43:28.517Z,4.50
2019-02-24T15:45:57.701Z,4.40
2019-02-24T15:48:26.963Z,4.35
2019-02-24T15:50:56.489Z,4.95
2019-02-24T15:53:25.658Z,4.33
2019-02-24T15:55:54.946Z,4.15
2019-02-24T15:58:24.191Z,4.30
2019-02-24T16:00:53.478Z,5.30
2019-02-24T16:03:22.680Z,4.62
2019-02-24T16:05:51.953Z,3.83
2019-02-24T16:08:21.182Z,4.28
2019-02-24T16:10:50.388Z,4.20
2019-02-24T16:13:19.602Z,4.65
2019-02-24T16:15:48.807Z,4.87
2019-02-24T16:18:17.997Z,4.37
2019-02-24T16:20:47.365Z,4.42
2019-02-24T16:23:16.465Z,4.58
2019-02-24T16:25:45.700Z,5.12
2019-02-24T16:28:14.966Z,4.72
2019-02-24T16:30:44.177Z,4.20
2019-02-24T16:33:13.462Z,5.40
2019-02-24T16:35:42.633Z,4.67
2019-02-24T16:38:11.758Z,4.20
2019-02-24T16:40:41.019Z,4.60
2019-02-24T16:43:10.240Z,4.92
2019-02-24T16:45:39.562Z,4.15
2019-02-24T16:48:08.799Z,4.30
2019-02-24T16:50:38.257Z,4.83
2019-02-24T16:53:07.684Z,4.92
2019-02-24T16:55:36.782Z,5.45
2019-02-24T16:58:06.066Z,4.50
2019-02-24T17:00:35.291Z,4.60
2019-02-24T17:03:04.548Z,4.80
2019-02-24T17:05:33.953Z,4.55
2019-02-24T17:08:03.214Z,6.28
2019-02-24T17:10:32.377Z,5.33
2019-02-24T17:13:01.986Z,5.45
2019-02-24T17:15:31.285Z,5.72
2019-02-24T17:18:00.494Z,8.00
2019-02-24T17:20:29.717Z,6.40
2019-02-24T17:22:58.906Z,5.22
2019-02-24T17:25:28.029Z,5.80
2019-02-24T17:27:57.237Z,6.12
2019-02-24T17:30:26.472Z,5.40
2019-02-24T17:32:55.665Z,6.17
2019-02-24T17:35:24.852Z,5.17
2019-02-24T17:37:54.061Z,6.70
2019-02-24T17:40:23.217Z,8.03
2019-02-24T17:42:52.516Z,8.43
2019-02-24T17:45:21.811Z,9.83
2019-02-24T17:47:51.155Z,7.60
2019-02-24T17:50:20.383Z,9.85
2019-02-24T17:52:49.570Z,10.40
2019-02-24T17:55:18.791Z,8.28
2019-02-24T17:57:48.009Z,8.75
2019-02-24T18:00:21.211Z,8.55
2019-02-24T18:02:50.369Z,8.35
2019-02-24T18:05:19.603Z,8.40
2019-02-24T18:07:48.769Z,6.67
2019-02-24T18:10:18.004Z,7.30
2019-02-24T18:12:47.278Z,6.70
2019-02-24T18:15:16.571Z,6.78
2019-02-24T18:17:45.856Z,8.28
2019-02-24T18:20:15.099Z,6.87
2019-02-24T18:22:44.301Z,8.70
2019-02-24T18:25:13.855Z,7.85
2019-02-24T18:27:43.074Z,12.30
2019-02-24T18:30:31.377Z,7.90
2019-02-24T18:33:00.529Z,7.63
2019-02-24T18:35:29.794Z,6.90
2019-02-24T18:37:58.990Z,6.40
2019-02-24T18:40:28.129Z,7.27
2019-02-24T18:43:00.616Z,7.13
2019-02-24T18:45:28.422Z,6.73
2019-02-24T18:47:57.538Z,6.75
2019-02-24T18:50:26.822Z,6.60
2019-02-24T18:52:55.933Z,6.53
2019-02-24T18:55:25.189Z,6.47
2019-02-24T18:57:54.402Z,7.55
2019-02-24T19:00:23.517Z,7.73
2019-02-24T19:02:54.822Z,7.97
2019-02-24T19:05:23.676Z,8.47
2019-02-24T19:07:52.918Z,7.73
2019-02-24T19:10:22.289Z,7.97
2019-02-24T19:12:51.555Z,7.87
2019-02-24T19:15:20.749Z,7.17
2019-02-24T19:17:49.952Z,7.57
2019-02-24T19:20:19.521Z,7.93
2019-02-24T19:25:49.565Z,6.83
2019-02-24T19:28:18.666Z,8.93
2019-02-24T19:30:48.087Z,28.70
2019-02-24T19:33:17.288Z,14.07
2019-02-24T19:35:46.425Z,8.07
2019-02-24T19:38:15.700Z,7.80
2019-02-24T19:40:44.897Z,8.23
2019-02-24T19:43:14.083Z,8.17
2019-02-24T19:45:43.190Z,7.67
2019-02-24T19:48:12.429Z,7.40
2019-02-24T19:50:41.619Z,8.00
2019-02-24T19:53:10.722Z,8.27
2019-02-24T19:55:39.937Z,7.57
2019-02-24T19:58:09.171Z,8.03
2019-02-24T20:00:38.396Z,8.07
2019-02-24T20:03:07.713Z,6.63
2019-02-24T20:05:36.999Z,7.63
2019-02-24T20:08:06.215Z,7.90
2019-02-24T20:10:35.373Z,8.63
2019-02-24T20:13:04.595Z,9.40
2019-02-24T20:15:35.743Z,7.50
2019-02-24T20:18:04.897Z,8.83
2019-02-24T20:20:34.083Z,8.53
2019-02-24T20:23:03.272Z,8.90
2019-02-24T20:25:32.929Z,8.87
2019-02-24T20:28:02.160Z,8.03
2019-02-24T20:30:31.417Z,7.80
2019-02-24T20:33:00.654Z,8.07
2019-02-24T20:35:29.822Z,8.37
2019-02-24T20:37:59.046Z,8.30
2019-02-24T20:40:28.401Z,9.13
2019-02-24T20:42:57.599Z,7.73
2019-02-24T20:45:29.065Z,7.60
2019-02-24T20:47:57.846Z,20.30
2019-02-24T20:50:27.158Z,20.83
2019-02-24T20:52:56.397Z,8.40
2019-02-24T20:55:25.646Z,9.27
2019-02-24T20:57:54.838Z,8.87
2019-02-24T21:00:27.105Z,9.03
2019-02-24T21:02:56.239Z,7.80
2019-02-24T21:05:25.506Z,8.40
2019-02-24T21:07:54.686Z,7.83
2019-02-24T21:10:23.896Z,8.47
2019-02-24T21:12:53.090Z,8.07
2019-02-24T21:15:22.332Z,8.70
2019-02-24T21:18:10.708Z,8.70
2019-02-24T21:20:39.923Z,8.30
2019-02-24T21:23:09.130Z,7.40
2019-02-24T21:25:38.412Z,8.93
2019-02-24T21:28:07.625Z,8.73
2019-02-24T21:30:36.906Z,8.90
2019-02-24T21:33:06.105Z,7.80
2019-02-24T21:35:35.304Z,7.47
2019-02-24T21:38:04.579Z,8.60
2019-02-24T21:40:33.837Z,9.27
2019-02-24T21:43:03.119Z,8.90
2019-02-24T21:45:32.293Z,8.00
2019-02-24T21:48:01.481Z,44.30
2019-02-24T21:50:30.765Z,22.70
2019-02-24T21:52:59.984Z,9.03
2019-02-24T21:55:29.222Z,9.53
2019-02-24T21:57:58.438Z,9.47
2019-02-24T22:00:27.762Z,8.53
2019-02-24T22:02:57.069Z,8.87
2019-02-24T22:05:26.277Z,7.73
2019-02-24T22:07:55.854Z,7.20
2019-02-24T22:10:25.321Z,8.03
2019-02-24T22:12:54.609Z,9.13
2019-02-24T22:15:23.788Z,9.53
2019-02-24T22:17:53.038Z,9.53
2019-02-24T22:20:22.232Z,9.03
2019-02-24T22:22:51.472Z,8.40
2019-02-24T22:25:20.787Z,9.03
2019-02-24T22:27:50.006Z,8.60
2019-02-24T22:30:19.297Z,27.03
2019-02-24T22:32:48.475Z,13.83
2019-02-24T22:35:17.718Z,15.50
2019-02-24T22:37:47.005Z,15.40
2019-02-24T22:40:17.087Z,10.97
2019-02-24T22:42:46.496Z,14.10
2019-02-24T22:45:17.029Z,10.13
2019-02-24T22:47:46.577Z,11.00
2019-02-24T22:50:16.023Z,8.50
2019-02-24T22:52:45.236Z,9.27
2019-02-24T22:55:14.852Z,8.20
2019-02-24T22:57:44.069Z,9.07
2019-02-24T23:01:00.010Z,8.47
2019-02-24T23:03:31.611Z,8.30
2019-02-24T23:06:00.805Z,8.70
2019-02-24T23:08:30.034Z,8.73
2019-02-24T23:10:59.170Z,9.70
2019-02-24T23:13:28.358Z,9.23
2019-02-24T23:15:57.616Z,8.30
2019-02-24T23:18:26.889Z,9.23
2019-02-24T23:20:56.001Z,8.53
2019-02-24T23:23:25.216Z,8.57
2019-02-24T23:25:54.429Z,8.40
2019-02-24T23:28:23.654Z,8.60
2019-02-24T23:30:52.950Z,8.07
2019-02-24T23:33:22.234Z,8.90
2019-02-24T23:35:51.481Z,8.27
2019-02-24T23:38:20.699Z,7.90
2019-02-24T23:40:49.975Z,9.53
2019-02-24T23:43:19.173Z,7.93
2019-02-24T23:45:48.370Z,8.30
2019-02-24T23:48:17.585Z,8.37
2019-02-24T23:50:46.846Z,9.13
2019-02-24T23:53:15.977Z,8.87
2019-02-24T23:55:45.260Z,9.23
2019-02-24T23:58:14.434Z,7.73
